sensor_id;sensor_type;location;lat;lon;timestamp;P1;durP1;ratioP1;P2;durP2;ratioP2
75129;SDS011;63703;44.716;37.846;2022-10-31T00:02:20;16.27;;;3.95;;
75129;SDS011;63703;44.716;37.846;2022-10-31T00:04:46;15.50;;;4.65;;
75129;SDS011;63703;44.716;37.846;2022-10-31T00:07:12;9.02;;;3.72;;
75129;SDS011;63703;44.716;37.846;2022-10-31T00:09:38;12.70;;;3.28;;
75129;SDS011;63703;44.716;37.846;2022-10-31T00:12:04;9.68;;;3.13;;
75129;SDS011;63703;44.716;37.846;2022-10-31T00:14:30;6.05;;;2.10;;
75129;SDS011;63703;44.716;37.846;2022-10-31T00:16:56;8.25;;;2.35;;
75129;SDS011;63703;44.716;37.846;2022-10-31T00:19:21;5.25;;;1.92;;
75129;SDS011;63703;44.716;37.846;2022-10-31T00:21:47;8.45;;;2.90;;
75129;SDS011;63703;44.716;37.846;2022-10-31T00:24:13;9.70;;;2.63;;
75129;SDS011;63703;44.716;37.846;2022-10-31T00:26:39;5.45;;;2.20;;
75129;SDS011;63703;44.716;37.846;2022-10-31T00:29:05;6.55;;;1.92;;
75129;SDS011;63703;44.716;37.846;2022-10-31T00:31:31;10.07;;;2.70;;
75129;SDS011;63703;44.716;37.846;2022-10-31T00:33:59;6.53;;;2.53;;
75129;SDS011;63703;44.716;37.846;2022-10-31T00:36:25;9.15;;;2.20;;
75129;SDS011;63703;44.716;37.846;2022-10-31T00:38:51;5.70;;;2.40;;
75129;SDS011;63703;44.716;37.846;2022-10-31T00:41:19;6.93;;;2.13;;
75129;SDS011;63703;44.716;37.846;2022-10-31T00:43:45;9.38;;;2.65;;
75129;SDS011;63703;44.716;37.846;2022-10-31T00:46:12;5.47;;;1.95;;
75129;SDS011;63703;44.716;37.846;2022-10-31T00:48:39;8.82;;;2.78;;
75129;SDS011;63703;44.716;37.846;2022-10-31T00:51:06;8.13;;;2.45;;
75129;SDS011;63703;44.716;37.846;2022-10-31T00:53:32;7.40;;;2.67;;
75129;SDS011;63703;44.716;37.846;2022-10-31T00:55:59;6.78;;;2.08;;
75129;SDS011;63703;44.716;37.846;2022-10-31T00:58:25;8.27;;;2.50;;
75129;SDS011;63703;44.716;37.846;2022-10-31T01:00:51;10.05;;;2.42;;
75129;SDS011;63703;44.716;37.846;2022-10-31T01:03:22;9.52;;;3.80;;
75129;SDS011;63703;44.716;37.846;2022-10-31T01:06:11;7.63;;;2.67;;
75129;SDS011;63703;44.716;37.846;2022-10-31T01:08:38;6.13;;;2.42;;
75129;SDS011;63703;44.716;37.846;2022-10-31T01:13:40;8.75;;;3.92;;
75129;SDS011;63703;44.716;37.846;2022-10-31T01:16:07;6.43;;;2.65;;
75129;SDS011;63703;44.716;37.846;2022-10-31T01:18:35;9.52;;;2.85;;
75129;SDS011;63703;44.716;37.846;2022-10-31T01:21:03;8.52;;;4.15;;
75129;SDS011;63703;44.716;37.846;2022-10-31T01:23:29;8.60;;;3.67;;
75129;SDS011;63703;44.716;37.846;2022-10-31T01:26:03;6.63;;;2.50;;
75129;SDS011;63703;44.716;37.846;2022-10-31T01:28:42;11.75;;;3.60;;
75129;SDS011;63703;44.716;37.846;2022-10-31T01:31:10;10.32;;;4.40;;
75129;SDS011;63703;44.716;37.846;2022-10-31T01:33:37;9.90;;;2.80;;
75129;SDS011;63703;44.716;37.846;2022-10-31T01:36:48;8.10;;;2.60;;
75129;SDS011;63703;44.716;37.846;2022-10-31T01:38:51;7.22;;;3.05;;
75129;SDS011;63703;44.716;37.846;2022-10-31T01:41:20;9.10;;;2.85;;
75129;SDS011;63703;44.716;37.846;2022-10-31T01:43:57;9.60;;;3.58;;
75129;SDS011;63703;44.716;37.846;2022-10-31T01:46:47;6.72;;;3.42;;
75129;SDS011;63703;44.716;37.846;2022-10-31T01:52:44;6.63;;;3.33;;
75129;SDS011;63703;44.716;37.846;2022-10-31T01:54:39;9.95;;;3.20;;
75129;SDS011;63703;44.716;37.846;2022-10-31T01:57:11;8.57;;;3.50;;
75129;SDS011;63703;44.716;37.846;2022-10-31T01:59:40;6.75;;;4.20;;
75129;SDS011;63703;44.716;37.846;2022-10-31T02:02:10;7.18;;;3.13;;
75129;SDS011;63703;44.716;37.846;2022-10-31T02:04:37;6.85;;;2.38;;
75129;SDS011;63703;44.716;37.846;2022-10-31T02:07:09;6.93;;;2.72;;
75129;SDS011;63703;44.716;37.846;2022-10-31T02:09:39;6.90;;;3.03;;
75129;SDS011;63703;44.716;37.846;2022-10-31T02:12:06;5.85;;;2.33;;
75129;SDS011;63703;44.716;37.846;2022-10-31T02:14:33;12.32;;;2.72;;
75129;SDS011;63703;44.716;37.846;2022-10-31T02:17:02;5.95;;;2.58;;
75129;SDS011;63703;44.716;37.846;2022-10-31T02:22:19;5.78;;;2.55;;
75129;SDS011;63703;44.716;37.846;2022-10-31T02:27:54;7.88;;;2.78;;
75129;SDS011;63703;44.716;37.846;2022-10-31T02:33:33;8.10;;;3.13;;
75129;SDS011;63703;44.716;37.846;2022-10-31T02:39:06;5.20;;;2.65;;
75129;SDS011;63703;44.716;37.846;2022-10-31T02:41:47;5.70;;;2.80;;
75129;SDS011;63703;44.716;37.846;2022-10-31T02:49:43;7.68;;;2.90;;
75129;SDS011;63703;44.716;37.846;2022-10-31T02:54:57;9.13;;;3.22;;
75129;SDS011;63703;44.716;37.846;2022-10-31T02:57:32;9.48;;;4.10;;
75129;SDS011;63703;44.716;37.846;2022-10-31T03:00:05;11.68;;;3.97;;
75129;SDS011;63703;44.716;37.846;2022-10-31T03:02:52;5.47;;;2.33;;
75129;SDS011;63703;44.716;37.846;2022-10-31T03:05:38;6.20;;;3.30;;
75129;SDS011;63703;44.716;37.846;2022-10-31T03:08:26;6.70;;;3.17;;
75129;SDS011;63703;44.716;37.846;2022-10-31T03:11:03;11.18;;;4.68;;
75129;SDS011;63703;44.716;37.846;2022-10-31T03:16:43;9.40;;;3.40;;
75129;SDS011;63703;44.716;37.846;2022-10-31T03:19:14;11.95;;;3.90;;
75129;SDS011;63703;44.716;37.846;2022-10-31T03:22:07;10.15;;;3.30;;
75129;SDS011;63703;44.716;37.846;2022-10-31T03:24:42;9.15;;;3.95;;
75129;SDS011;63703;44.716;37.846;2022-10-31T03:27:09;6.28;;;3.60;;
75129;SDS011;63703;44.716;37.846;2022-10-31T03:29:38;7.20;;;3.15;;
75129;SDS011;63703;44.716;37.846;2022-10-31T03:32:17;11.15;;;3.10;;
75129;SDS011;63703;44.716;37.846;2022-10-31T03:34:49;11.30;;;3.58;;
75129;SDS011;63703;44.716;37.846;2022-10-31T03:37:19;9.98;;;3.40;;
75129;SDS011;63703;44.716;37.846;2022-10-31T03:39:48;11.13;;;4.50;;
75129;SDS011;63703;44.716;37.846;2022-10-31T03:42:25;6.78;;;4.03;;
75129;SDS011;63703;44.716;37.846;2022-10-31T03:45:05;7.85;;;3.88;;
75129;SDS011;63703;44.716;37.846;2022-10-31T03:47:33;9.35;;;3.97;;
75129;SDS011;63703;44.716;37.846;2022-10-31T03:50:00;7.20;;;3.88;;
75129;SDS011;63703;44.716;37.846;2022-10-31T03:52:35;7.32;;;3.78;;
75129;SDS011;63703;44.716;37.846;2022-10-31T03:55:09;5.43;;;2.25;;
75129;SDS011;63703;44.716;37.846;2022-10-31T03:57:51;8.63;;;3.72;;
75129;SDS011;63703;44.716;37.846;2022-10-31T04:00:24;8.95;;;4.22;;
75129;SDS011;63703;44.716;37.846;2022-10-31T04:02:59;7.40;;;4.28;;
75129;SDS011;63703;44.716;37.846;2022-10-31T04:05:32;7.95;;;4.15;;
75129;SDS011;63703;44.716;37.846;2022-10-31T04:08:01;7.68;;;3.20;;
75129;SDS011;63703;44.716;37.846;2022-10-31T04:10:30;7.85;;;3.05;;
75129;SDS011;63703;44.716;37.846;2022-10-31T04:13:00;10.25;;;3.88;;
75129;SDS011;63703;44.716;37.846;2022-10-31T04:15:41;8.90;;;3.30;;
75129;SDS011;63703;44.716;37.846;2022-10-31T04:18:08;8.50;;;3.78;;
75129;SDS011;63703;44.716;37.846;2022-10-31T04:20:36;6.95;;;3.60;;
75129;SDS011;63703;44.716;37.846;2022-10-31T04:23:05;11.20;;;2.95;;
75129;SDS011;63703;44.716;37.846;2022-10-31T04:25:49;7.32;;;3.08;;
75129;SDS011;63703;44.716;37.846;2022-10-31T04:28:16;7.03;;;3.00;;
75129;SDS011;63703;44.716;37.846;2022-10-31T04:30:42;14.30;;;4.18;;
75129;SDS011;63703;44.716;37.846;2022-10-31T04:33:08;7.28;;;3.08;;
75129;SDS011;63703;44.716;37.846;2022-10-31T04:35:35;11.50;;;3.50;;
75129;SDS011;63703;44.716;37.846;2022-10-31T04:38:01;8.23;;;2.92;;
75129;SDS011;63703;44.716;37.846;2022-10-31T04:40:27;8.27;;;3.85;;
75129;SDS011;63703;44.716;37.846;2022-10-31T04:43:28;9.40;;;4.03;;
75129;SDS011;63703;44.716;37.846;2022-10-31T04:45:54;7.85;;;4.25;;
75129;SDS011;63703;44.716;37.846;2022-10-31T04:48:20;7.70;;;4.43;;
75129;SDS011;63703;44.716;37.846;2022-10-31T04:50:46;8.88;;;3.13;;
75129;SDS011;63703;44.716;37.846;2022-10-31T04:53:13;7.80;;;3.40;;
75129;SDS011;63703;44.716;37.846;2022-10-31T04:55:59;9.43;;;4.63;;
75129;SDS011;63703;44.716;37.846;2022-10-31T04:58:34;8.20;;;3.47;;
75129;SDS011;63703;44.716;37.846;2022-10-31T05:01:02;7.35;;;3.90;;
75129;SDS011;63703;44.716;37.846;2022-10-31T05:03:28;7.47;;;3.83;;
75129;SDS011;63703;44.716;37.846;2022-10-31T05:05:54;7.43;;;3.60;;
75129;SDS011;63703;44.716;37.846;2022-10-31T05:08:20;7.95;;;3.42;;
75129;SDS011;63703;44.716;37.846;2022-10-31T05:10:49;7.15;;;3.42;;
75129;SDS011;63703;44.716;37.846;2022-10-31T05:13:15;8.60;;;2.90;;
75129;SDS011;63703;44.716;37.846;2022-10-31T05:16:00;7.85;;;4.57;;
75129;SDS011;63703;44.716;37.846;2022-10-31T05:18:37;8.65;;;3.30;;
75129;SDS011;63703;44.716;37.846;2022-10-31T05:21:29;5.80;;;2.55;;
75129;SDS011;63703;44.716;37.846;2022-10-31T05:23:59;7.80;;;4.10;;
75129;SDS011;63703;44.716;37.846;2022-10-31T05:26:25;6.75;;;3.50;;
75129;SDS011;63703;44.716;37.846;2022-10-31T05:28:53;7.53;;;3.10;;
75129;SDS011;63703;44.716;37.846;2022-10-31T05:31:19;9.95;;;4.18;;
75129;SDS011;63703;44.716;37.846;2022-10-31T05:33:45;9.40;;;4.20;;
75129;SDS011;63703;44.716;37.846;2022-10-31T05:36:29;11.57;;;5.78;;
75129;SDS011;63703;44.716;37.846;2022-10-31T05:39:02;8.68;;;4.28;;
75129;SDS011;63703;44.716;37.846;2022-10-31T05:41:33;9.63;;;4.22;;
75129;SDS011;63703;44.716;37.846;2022-10-31T05:44:12;9.18;;;4.53;;
75129;SDS011;63703;44.716;37.846;2022-10-31T05:46:57;9.13;;;4.15;;
75129;SDS011;63703;44.716;37.846;2022-10-31T05:49:23;8.07;;;4.03;;
75129;SDS011;63703;44.716;37.846;2022-10-31T05:52:27;9.70;;;3.53;;
75129;SDS011;63703;44.716;37.846;2022-10-31T05:55:00;7.75;;;3.63;;
75129;SDS011;63703;44.716;37.846;2022-10-31T05:57:28;7.60;;;5.30;;
75129;SDS011;63703;44.716;37.846;2022-10-31T05:59:54;6.03;;;3.40;;
75129;SDS011;63703;44.716;37.846;2022-10-31T06:02:22;6.18;;;2.50;;
75129;SDS011;63703;44.716;37.846;2022-10-31T06:05:06;6.65;;;3.13;;
75129;SDS011;63703;44.716;37.846;2022-10-31T06:07:33;7.18;;;3.28;;
75129;SDS011;63703;44.716;37.846;2022-10-31T06:10:00;9.90;;;3.33;;
75129;SDS011;63703;44.716;37.846;2022-10-31T06:12:27;9.15;;;2.97;;
75129;SDS011;63703;44.716;37.846;2022-10-31T06:15:32;10.57;;;3.30;;
75129;SDS011;63703;44.716;37.846;2022-10-31T06:18:02;7.75;;;3.25;;
75129;SDS011;63703;44.716;37.846;2022-10-31T06:20:33;6.82;;;3.25;;
75129;SDS011;63703;44.716;37.846;2022-10-31T06:23:02;6.43;;;2.90;;
75129;SDS011;63703;44.716;37.846;2022-10-31T06:25:31;11.30;;;4.65;;
75129;SDS011;63703;44.716;37.846;2022-10-31T06:27:58;7.22;;;3.28;;
75129;SDS011;63703;44.716;37.846;2022-10-31T06:30:33;11.50;;;4.13;;
75129;SDS011;63703;44.716;37.846;2022-10-31T06:33:04;9.43;;;3.47;;
75129;SDS011;63703;44.716;37.846;2022-10-31T06:35:33;11.30;;;3.78;;
75129;SDS011;63703;44.716;37.846;2022-10-31T06:37:59;8.13;;;3.80;;
75129;SDS011;63703;44.716;37.846;2022-10-31T06:40:43;8.43;;;3.45;;
75129;SDS011;63703;44.716;37.846;2022-10-31T06:43:25;6.25;;;3.45;;
75129;SDS011;63703;44.716;37.846;2022-10-31T06:46:09;8.55;;;3.28;;
75129;SDS011;63703;44.716;37.846;2022-10-31T06:48:42;7.55;;;3.28;;
75129;SDS011;63703;44.716;37.846;2022-10-31T06:53:44;8.40;;;3.25;;
75129;SDS011;63703;44.716;37.846;2022-10-31T06:56:12;11.00;;;3.85;;
75129;SDS011;63703;44.716;37.846;2022-10-31T06:58:44;11.23;;;3.30;;
75129;SDS011;63703;44.716;37.846;2022-10-31T07:01:10;9.15;;;4.13;;
75129;SDS011;63703;44.716;37.846;2022-10-31T07:03:36;8.25;;;3.55;;
75129;SDS011;63703;44.716;37.846;2022-10-31T07:06:02;8.55;;;3.50;;
75129;SDS011;63703;44.716;37.846;2022-10-31T07:08:28;9.85;;;2.90;;
75129;SDS011;63703;44.716;37.846;2022-10-31T07:10:55;10.82;;;4.13;;
75129;SDS011;63703;44.716;37.846;2022-10-31T07:13:23;7.32;;;2.88;;
75129;SDS011;63703;44.716;37.846;2022-10-31T07:16:05;5.35;;;1.85;;
75129;SDS011;63703;44.716;37.846;2022-10-31T07:18:41;4.70;;;1.88;;
75129;SDS011;63703;44.716;37.846;2022-10-31T07:21:09;7.20;;;2.58;;
75129;SDS011;63703;44.716;37.846;2022-10-31T07:23:35;5.88;;;1.45;;
75129;SDS011;63703;44.716;37.846;2022-10-31T07:26:19;4.97;;;2.00;;
75129;SDS011;63703;44.716;37.846;2022-10-31T07:28:47;7.57;;;2.28;;
75129;SDS011;63703;44.716;37.846;2022-10-31T07:31:14;7.65;;;2.47;;
75129;SDS011;63703;44.716;37.846;2022-10-31T07:33:40;8.13;;;2.38;;
75129;SDS011;63703;44.716;37.846;2022-10-31T07:36:25;7.70;;;2.03;;
75129;SDS011;63703;44.716;37.846;2022-10-31T07:38:53;6.38;;;2.58;;
75129;SDS011;63703;44.716;37.846;2022-10-31T07:41:19;9.45;;;2.05;;
75129;SDS011;63703;44.716;37.846;2022-10-31T07:43:46;5.68;;;2.47;;
75129;SDS011;63703;44.716;37.846;2022-10-31T07:46:15;10.38;;;3.25;;
75129;SDS011;63703;44.716;37.846;2022-10-31T07:49:00;9.45;;;2.47;;
75129;SDS011;63703;44.716;37.846;2022-10-31T07:51:45;6.88;;;2.97;;
75129;SDS011;63703;44.716;37.846;2022-10-31T07:54:29;7.55;;;3.13;;
75129;SDS011;63703;44.716;37.846;2022-10-31T07:56:55;8.38;;;3.17;;
75129;SDS011;63703;44.716;37.846;2022-10-31T07:59:22;9.15;;;3.28;;
75129;SDS011;63703;44.716;37.846;2022-10-31T08:01:47;5.50;;;2.55;;
75129;SDS011;63703;44.716;37.846;2022-10-31T08:04:39;7.80;;;3.25;;
75129;SDS011;63703;44.716;37.846;2022-10-31T08:07:24;6.55;;;2.72;;
75129;SDS011;63703;44.716;37.846;2022-10-31T08:09:57;10.65;;;4.53;;
75129;SDS011;63703;44.716;37.846;2022-10-31T08:12:27;10.45;;;3.35;;
75129;SDS011;63703;44.716;37.846;2022-10-31T08:14:53;13.20;;;3.60;;
75129;SDS011;63703;44.716;37.846;2022-10-31T08:17:19;10.85;;;4.30;;
75129;SDS011;63703;44.716;37.846;2022-10-31T08:19:57;6.60;;;2.08;;
75129;SDS011;63703;44.716;37.846;2022-10-31T08:22:30;7.20;;;2.83;;
75129;SDS011;63703;44.716;37.846;2022-10-31T08:24:58;11.98;;;3.53;;
75129;SDS011;63703;44.716;37.846;2022-10-31T08:27:24;7.35;;;3.58;;
75129;SDS011;63703;44.716;37.846;2022-10-31T08:29:50;8.88;;;2.75;;
75129;SDS011;63703;44.716;37.846;2022-10-31T08:32:15;10.55;;;2.88;;
75129;SDS011;63703;44.716;37.846;2022-10-31T08:35:02;8.52;;;3.63;;
75129;SDS011;63703;44.716;37.846;2022-10-31T08:37:56;14.32;;;3.85;;
75129;SDS011;63703;44.716;37.846;2022-10-31T08:40:26;10.43;;;2.83;;
75129;SDS011;63703;44.716;37.846;2022-10-31T08:42:57;8.82;;;2.72;;
75129;SDS011;63703;44.716;37.846;2022-10-31T08:45:28;10.80;;;2.55;;
75129;SDS011;63703;44.716;37.846;2022-10-31T08:47:56;8.32;;;2.42;;
75129;SDS011;63703;44.716;37.846;2022-10-31T08:50:24;9.60;;;3.53;;
75129;SDS011;63703;44.716;37.846;2022-10-31T08:52:51;6.03;;;2.72;;
75129;SDS011;63703;44.716;37.846;2022-10-31T08:55:17;8.70;;;2.25;;
75129;SDS011;63703;44.716;37.846;2022-10-31T08:58:16;8.05;;;3.45;;
75129;SDS011;63703;44.716;37.846;2022-10-31T09:00:48;11.48;;;3.20;;
75129;SDS011;63703;44.716;37.846;2022-10-31T09:03:23;10.57;;;2.75;;
75129;SDS011;63703;44.716;37.846;2022-10-31T09:05:54;9.68;;;2.28;;
75129;SDS011;63703;44.716;37.846;2022-10-31T09:10:49;6.07;;;1.88;;
75129;SDS011;63703;44.716;37.846;2022-10-31T09:13:23;5.47;;;1.58;;
75129;SDS011;63703;44.716;37.846;2022-10-31T09:16:27;7.45;;;2.58;;
75129;SDS011;63703;44.716;37.846;2022-10-31T09:18:53;5.80;;;2.30;;
75129;SDS011;63703;44.716;37.846;2022-10-31T09:21:19;7.53;;;2.55;;
75129;SDS011;63703;44.716;37.846;2022-10-31T09:23:46;8.27;;;2.17;;
75129;SDS011;63703;44.716;37.846;2022-10-31T09:26:12;5.78;;;1.67;;
75129;SDS011;63703;44.716;37.846;2022-10-31T09:28:55;6.47;;;2.20;;
75129;SDS011;63703;44.716;37.846;2022-10-31T09:31:24;6.43;;;3.05;;
75129;SDS011;63703;44.716;37.846;2022-10-31T09:33:57;9.43;;;1.85;;
75129;SDS011;63703;44.716;37.846;2022-10-31T09:36:36;6.13;;;2.88;;
75129;SDS011;63703;44.716;37.846;2022-10-31T09:39:04;8.45;;;2.50;;
75129;SDS011;63703;44.716;37.846;2022-10-31T09:41:45;6.20;;;1.90;;
75129;SDS011;63703;44.716;37.846;2022-10-31T09:50:38;8.35;;;1.20;;
75129;SDS011;63703;44.716;37.846;2022-10-31T09:55:57;6.65;;;1.23;;
75129;SDS011;63703;44.716;37.846;2022-10-31T09:58:25;5.95;;;1.15;;
75129;SDS011;63703;44.716;37.846;2022-10-31T10:00:55;5.82;;;1.10;;
75129;SDS011;63703;44.716;37.846;2022-10-31T10:03:40;5.70;;;1.30;;
75129;SDS011;63703;44.716;37.846;2022-10-31T10:06:32;4.85;;;0.77;;
75129;SDS011;63703;44.716;37.846;2022-10-31T10:09:21;5.43;;;1.05;;
75129;SDS011;63703;44.716;37.846;2022-10-31T10:15:03;7.55;;;1.23;;
75129;SDS011;63703;44.716;37.846;2022-10-31T10:17:54;5.72;;;2.22;;
75129;SDS011;63703;44.716;37.846;2022-10-31T10:20:56;5.30;;;0.95;;
75129;SDS011;63703;44.716;37.846;2022-10-31T10:26:29;6.43;;;1.40;;
75129;SDS011;63703;44.716;37.846;2022-10-31T10:29:01;5.35;;;1.42;;
75129;SDS011;63703;44.716;37.846;2022-10-31T10:32:06;7.18;;;1.20;;
75129;SDS011;63703;44.716;37.846;2022-10-31T10:34:43;7.80;;;1.33;;
75129;SDS011;63703;44.716;37.846;2022-10-31T10:40:13;6.15;;;0.98;;
75129;SDS011;63703;44.716;37.846;2022-10-31T10:45:38;5.10;;;0.93;;
75129;SDS011;63703;44.716;37.846;2022-10-31T10:48:27;5.38;;;1.08;;
75129;SDS011;63703;44.716;37.846;2022-10-31T10:51:10;5.80;;;0.40;;
75129;SDS011;63703;44.716;37.846;2022-10-31T11:01:35;3.78;;;0.93;;
75129;SDS011;63703;44.716;37.846;2022-10-31T11:04:02;4.57;;;1.08;;
75129;SDS011;63703;44.716;37.846;2022-10-31T11:08:54;5.75;;;1.33;;
75129;SDS011;63703;44.716;37.846;2022-10-31T11:11:24;7.20;;;1.33;;
75129;SDS011;63703;44.716;37.846;2022-10-31T11:21:53;6.97;;;1.67;;
75129;SDS011;63703;44.716;37.846;2022-10-31T11:24:20;3.92;;;1.17;;
75129;SDS011;63703;44.716;37.846;2022-10-31T11:26:49;3.25;;;0.82;;
75129;SDS011;63703;44.716;37.846;2022-10-31T11:29:17;6.78;;;1.02;;
75129;SDS011;63703;44.716;37.846;2022-10-31T11:31:46;5.28;;;1.73;;
75129;SDS011;63703;44.716;37.846;2022-10-31T11:36:48;5.57;;;0.93;;
75129;SDS011;63703;44.716;37.846;2022-10-31T11:39:16;6.97;;;2.13;;
75129;SDS011;63703;44.716;37.846;2022-10-31T11:41:45;4.70;;;0.82;;
75129;SDS011;63703;44.716;37.846;2022-10-31T11:47:04;7.05;;;1.55;;
75129;SDS011;63703;44.716;37.846;2022-10-31T11:54:57;7.45;;;2.70;;
75129;SDS011;63703;44.716;37.846;2022-10-31T11:59:54;5.05;;;1.33;;
75129;SDS011;63703;44.716;37.846;2022-10-31T12:05:17;7.68;;;1.83;;
75129;SDS011;63703;44.716;37.846;2022-10-31T12:07:43;6.95;;;1.50;;
75129;SDS011;63703;44.716;37.846;2022-10-31T12:10:10;9.73;;;2.45;;
75129;SDS011;63703;44.716;37.846;2022-10-31T12:15:34;4.93;;;2.05;;
75129;SDS011;63703;44.716;37.846;2022-10-31T12:25:56;11.15;;;4.45;;
75129;SDS011;63703;44.716;37.846;2022-10-31T12:34:26;11.20;;;3.75;;
75129;SDS011;63703;44.716;37.846;2022-10-31T12:42:40;9.85;;;4.65;;
75129;SDS011;63703;44.716;37.846;2022-10-31T12:51:29;10.15;;;3.33;;
75129;SDS011;63703;44.716;37.846;2022-10-31T12:54:15;7.60;;;4.03;;
75129;SDS011;63703;44.716;37.846;2022-10-31T12:56:57;9.13;;;2.95;;
75129;SDS011;63703;44.716;37.846;2022-10-31T12:59:51;6.60;;;3.40;;
75129;SDS011;63703;44.716;37.846;2022-10-31T13:02:33;11.55;;;2.97;;
75129;SDS011;63703;44.716;37.846;2022-10-31T13:05:13;7.13;;;3.03;;
75129;SDS011;63703;44.716;37.846;2022-10-31T13:08:30;14.10;;;3.40;;
75129;SDS011;63703;44.716;37.846;2022-10-31T13:13:12;10.45;;;4.03;;
75129;SDS011;63703;44.716;37.846;2022-10-31T13:16:03;6.68;;;2.75;;
75129;SDS011;63703;44.716;37.846;2022-10-31T13:18:53;7.68;;;1.77;;
75129;SDS011;63703;44.716;37.846;2022-10-31T13:21:27;7.90;;;1.40;;
75129;SDS011;63703;44.716;37.846;2022-10-31T13:24:00;6.05;;;1.65;;
75129;SDS011;63703;44.716;37.846;2022-10-31T13:26:34;5.15;;;1.67;;
75129;SDS011;63703;44.716;37.846;2022-10-31T13:29:21;11.25;;;1.80;;
75129;SDS011;63703;44.716;37.846;2022-10-31T13:31:48;7.60;;;1.60;;
75129;SDS011;63703;44.716;37.846;2022-10-31T13:34:25;7.82;;;2.55;;
75129;SDS011;63703;44.716;37.846;2022-10-31T13:39:46;6.38;;;1.55;;
75129;SDS011;63703;44.716;37.846;2022-10-31T13:45:27;5.70;;;1.73;;
75129;SDS011;63703;44.716;37.846;2022-10-31T13:47:58;10.20;;;2.47;;
75129;SDS011;63703;44.716;37.846;2022-10-31T13:50:32;9.43;;;1.95;;
75129;SDS011;63703;44.716;37.846;2022-10-31T13:55:41;5.00;;;1.65;;
75129;SDS011;63703;44.716;37.846;2022-10-31T13:58:28;7.40;;;1.98;;
75129;SDS011;63703;44.716;37.846;2022-10-31T14:03:56;4.20;;;1.17;;
75129;SDS011;63703;44.716;37.846;2022-10-31T14:07:15;7.38;;;1.55;;
75129;SDS011;63703;44.716;37.846;2022-10-31T14:09:36;4.22;;;1.10;;
75129;SDS011;63703;44.716;37.846;2022-10-31T14:12:07;7.80;;;1.90;;
75129;SDS011;63703;44.716;37.846;2022-10-31T14:17:51;4.88;;;0.75;;
75129;SDS011;63703;44.716;37.846;2022-10-31T14:23:37;5.13;;;0.90;;
75129;SDS011;63703;44.716;37.846;2022-10-31T14:26:30;3.22;;;1.13;;
75129;SDS011;63703;44.716;37.846;2022-10-31T14:31:52;5.80;;;1.23;;
75129;SDS011;63703;44.716;37.846;2022-10-31T14:34:33;7.70;;;0.98;;
75129;SDS011;63703;44.716;37.846;2022-10-31T14:42:41;7.05;;;2.40;;
75129;SDS011;63703;44.716;37.846;2022-10-31T14:51:02;7.47;;;2.58;;
75129;SDS011;63703;44.716;37.846;2022-10-31T14:53:43;10.00;;;2.25;;
75129;SDS011;63703;44.716;37.846;2022-10-31T14:56:13;5.18;;;1.65;;
75129;SDS011;63703;44.716;37.846;2022-10-31T14:58:48;3.60;;;2.25;;
75129;SDS011;63703;44.716;37.846;2022-10-31T15:01:19;4.78;;;1.42;;
75129;SDS011;63703;44.716;37.846;2022-10-31T15:03:49;4.85;;;1.20;;
75129;SDS011;63703;44.716;37.846;2022-10-31T15:06:17;4.03;;;1.80;;
75129;SDS011;63703;44.716;37.846;2022-10-31T15:08:47;5.93;;;1.23;;
75129;SDS011;63703;44.716;37.846;2022-10-31T15:11:16;4.85;;;2.03;;
75129;SDS011;63703;44.716;37.846;2022-10-31T15:13:48;4.00;;;1.20;;
75129;SDS011;63703;44.716;37.846;2022-10-31T15:16:35;4.85;;;1.73;;
75129;SDS011;63703;44.716;37.846;2022-10-31T15:19:03;3.88;;;2.13;;
75129;SDS011;63703;44.716;37.846;2022-10-31T15:21:32;7.38;;;2.15;;
75129;SDS011;63703;44.716;37.846;2022-10-31T15:24:00;6.25;;;1.65;;
75129;SDS011;63703;44.716;37.846;2022-10-31T15:26:40;3.95;;;1.33;;
75129;SDS011;63703;44.716;37.846;2022-10-31T15:29:13;4.03;;;1.20;;
75129;SDS011;63703;44.716;37.846;2022-10-31T15:34:29;7.15;;;4.18;;
75129;SDS011;63703;44.716;37.846;2022-10-31T15:37:07;3.55;;;0.90;;
75129;SDS011;63703;44.716;37.846;2022-10-31T15:39:42;6.00;;;1.02;;
75129;SDS011;63703;44.716;37.846;2022-10-31T15:42:19;4.10;;;1.80;;
75129;SDS011;63703;44.716;37.846;2022-10-31T15:45:37;4.38;;;1.60;;
75129;SDS011;63703;44.716;37.846;2022-10-31T15:47:38;6.28;;;1.90;;
75129;SDS011;63703;44.716;37.846;2022-10-31T15:50:20;5.43;;;1.77;;
75129;SDS011;63703;44.716;37.846;2022-10-31T15:52:50;7.40;;;1.65;;
75129;SDS011;63703;44.716;37.846;2022-10-31T15:58:11;8.70;;;1.67;;
75129;SDS011;63703;44.716;37.846;2022-10-31T16:00:37;4.85;;;1.05;;
75129;SDS011;63703;44.716;37.846;2022-10-31T16:03:05;4.68;;;1.50;;
75129;SDS011;63703;44.716;37.846;2022-10-31T16:05:35;3.78;;;1.70;;
75129;SDS011;63703;44.716;37.846;2022-10-31T16:08:03;5.85;;;2.35;;
75129;SDS011;63703;44.716;37.846;2022-10-31T16:10:32;3.83;;;1.80;;
75129;SDS011;63703;44.716;37.846;2022-10-31T16:13:00;6.13;;;2.60;;
75129;SDS011;63703;44.716;37.846;2022-10-31T16:15:27;5.70;;;1.92;;
75129;SDS011;63703;44.716;37.846;2022-10-31T16:17:55;9.02;;;1.73;;
75129;SDS011;63703;44.716;37.846;2022-10-31T16:20:22;6.68;;;1.70;;
75129;SDS011;63703;44.716;37.846;2022-10-31T16:22:53;3.90;;;1.88;;
75129;SDS011;63703;44.716;37.846;2022-10-31T16:27:53;7.40;;;2.22;;
75129;SDS011;63703;44.716;37.846;2022-10-31T16:30:29;3.05;;;1.50;;
75129;SDS011;63703;44.716;37.846;2022-10-31T16:33:20;5.88;;;2.95;;
75129;SDS011;63703;44.716;37.846;2022-10-31T16:35:48;6.25;;;2.88;;
75129;SDS011;63703;44.716;37.846;2022-10-31T16:38:13;4.85;;;2.38;;
75129;SDS011;63703;44.716;37.846;2022-10-31T16:40:39;3.78;;;2.00;;
75129;SDS011;63703;44.716;37.846;2022-10-31T16:43:10;4.32;;;1.90;;
75129;SDS011;63703;44.716;37.846;2022-10-31T16:45:42;3.80;;;1.95;;
75129;SDS011;63703;44.716;37.846;2022-10-31T16:48:11;2.65;;;0.70;;
75129;SDS011;63703;44.716;37.846;2022-10-31T16:50:40;3.25;;;1.42;;
75129;SDS011;63703;44.716;37.846;2022-10-31T16:53:08;5.57;;;1.27;;
75129;SDS011;63703;44.716;37.846;2022-10-31T16:55:44;4.88;;;2.35;;
75129;SDS011;63703;44.716;37.846;2022-10-31T16:58:14;5.53;;;2.00;;
75129;SDS011;63703;44.716;37.846;2022-10-31T17:00:44;4.03;;;2.40;;
75129;SDS011;63703;44.716;37.846;2022-10-31T17:03:10;3.70;;;1.85;;
75129;SDS011;63703;44.716;37.846;2022-10-31T17:05:36;4.20;;;1.63;;
75129;SDS011;63703;44.716;37.846;2022-10-31T17:08:03;5.55;;;1.65;;
75129;SDS011;63703;44.716;37.846;2022-10-31T17:10:30;5.63;;;2.55;;
75129;SDS011;63703;44.716;37.846;2022-10-31T17:12:56;5.38;;;2.63;;
75129;SDS011;63703;44.716;37.846;2022-10-31T17:15:25;4.47;;;1.30;;
75129;SDS011;63703;44.716;37.846;2022-10-31T17:17:52;4.40;;;1.80;;
75129;SDS011;63703;44.716;37.846;2022-10-31T17:20:20;5.28;;;2.50;;
75129;SDS011;63703;44.716;37.846;2022-10-31T17:22:49;6.28;;;1.92;;
75129;SDS011;63703;44.716;37.846;2022-10-31T17:25:16;4.88;;;1.95;;
75129;SDS011;63703;44.716;37.846;2022-10-31T17:27:44;4.75;;;1.67;;
75129;SDS011;63703;44.716;37.846;2022-10-31T17:30:12;5.75;;;1.58;;
75129;SDS011;63703;44.716;37.846;2022-10-31T17:32:39;2.97;;;1.30;;
75129;SDS011;63703;44.716;37.846;2022-10-31T17:35:06;3.53;;;1.85;;
75129;SDS011;63703;44.716;37.846;2022-10-31T17:37:35;4.15;;;1.67;;
75129;SDS011;63703;44.716;37.846;2022-10-31T17:40:01;5.90;;;2.00;;
75129;SDS011;63703;44.716;37.846;2022-10-31T17:42:27;3.33;;;0.63;;
75129;SDS011;63703;44.716;37.846;2022-10-31T17:44:53;5.82;;;0.82;;
75129;SDS011;63703;44.716;37.846;2022-10-31T17:47:19;6.70;;;2.08;;